createdAt,value
2018-05-25T00:00:41.063Z,15.00
2018-05-25T00:03:10.161Z,14.90
2018-05-25T00:05:39.155Z,14.90
2018-05-25T00:08:08.349Z,14.90
2018-05-25T00:10:37.290Z,14.90
2018-05-25T00:13:06.130Z,14.80
2018-05-25T00:15:35.229Z,14.80
2018-05-25T00:18:04.167Z,14.80
2018-05-25T00:20:32.809Z,14.80
2018-05-25T00:23:02.103Z,14.70
2018-05-25T00:25:31.044Z,14.70
2018-05-25T00:27:59.785Z,14.70
2018-05-25T00:30:28.573Z,14.70
2018-05-25T00:32:57.667Z,14.70
2018-05-25T00:35:26.690Z,14.60
2018-05-25T00:37:56.266Z,14.60
2018-05-25T00:40:25.296Z,14.60
2018-05-25T00:42:54.458Z,14.60
2018-05-25T00:45:23.455Z,14.60
2018-05-25T00:47:52.126Z,14.50
2018-05-25T00:50:20.815Z,14.60
2018-05-25T00:52:49.608Z,14.50
2018-05-25T00:55:30.501Z,14.50
2018-05-25T00:57:59.615Z,14.50
2018-05-25T01:00:28.282Z,14.40
2018-05-25T01:02:56.972Z,14.40
2018-05-25T01:05:25.644Z,14.40
2018-05-25T01:07:54.361Z,14.30
2018-05-25T01:10:23.499Z,14.30
2018-05-25T01:12:52.616Z,14.20
2018-05-25T01:15:21.712Z,14.30
2018-05-25T01:17:50.398Z,14.20
2018-05-25T01:20:19.768Z,14.20
2018-05-25T01:22:48.486Z,14.20
2018-05-25T01:25:17.606Z,14.20
2018-05-25T01:27:46.272Z,14.20
2018-05-25T01:30:15.158Z,14.20
2018-05-25T01:32:44.832Z,14.20
2018-05-25T01:35:13.571Z,14.20
2018-05-25T01:37:42.266Z,14.20
2018-05-25T01:40:11.849Z,14.20
2018-05-25T01:42:40.848Z,14.20
2018-05-25T01:45:09.539Z,14.10
2018-05-25T01:47:38.310Z,14.10
2018-05-25T01:50:07.823Z,14.00
2018-05-25T01:52:36.505Z,14.00
2018-05-25T01:55:05.604Z,14.00
2018-05-25T01:57:34.148Z,14.00
2018-05-25T02:00:03.382Z,13.90
2018-05-25T02:02:32.407Z,13.90
2018-05-25T02:05:01.576Z,13.80
2018-05-25T02:07:30.519Z,13.70
2018-05-25T02:09:59.356Z,13.70
2018-05-25T02:12:28.375Z,13.60
2018-05-25T02:14:57.469Z,13.50
2018-05-25T02:17:26.587Z,13.50
2018-05-25T02:19:55.632Z,13.50
2018-05-25T02:22:24.344Z,13.40
2018-05-25T02:24:53.519Z,13.50
2018-05-25T02:27:22.615Z,13.50
2018-05-25T02:29:51.709Z,13.50
2018-05-25T02:32:20.740Z,13.50
2018-05-25T02:34:49.900Z,13.50
2018-05-25T02:37:18.875Z,13.50
2018-05-25T02:39:47.591Z,13.50
2018-05-25T02:42:16.257Z,13.50
2018-05-25T02:44:45.353Z,13.50
2018-05-25T02:47:14.157Z,13.50
2018-05-25T02:49:43.983Z,13.50
2018-05-25T02:52:12.750Z,13.50
2018-05-25T02:54:41.768Z,13.50
2018-05-25T02:57:10.548Z,13.50
2018-05-25T02:59:39.627Z,13.50
2018-05-25T03:02:08.321Z,13.60
2018-05-25T03:04:37.263Z,13.70
2018-05-25T03:07:06.003Z,13.70
2018-05-25T03:09:35.600Z,13.70
2018-05-25T03:12:04.284Z,13.80
2018-05-25T03:14:33.405Z,13.80
2018-05-25T03:17:02.450Z,13.70
2018-05-25T03:19:31.575Z,13.80
2018-05-25T03:22:00.256Z,14.10
2018-05-25T03:24:28.949Z,14.30
2018-05-25T03:26:57.423Z,14.50
2018-05-25T03:29:26.282Z,14.70
2018-05-25T03:31:55.297Z,14.90
2018-05-25T03:34:24.096Z,15.00
2018-05-25T03:36:53.604Z,15.10
2018-05-25T03:39:22.598Z,15.20
2018-05-25T03:41:51.315Z,15.20
2018-05-25T03:44:19.860Z,15.30
2018-05-25T03:46:49.043Z,15.70
2018-05-25T03:49:18.871Z,16.50
2018-05-25T03:51:47.661Z,17.50
2018-05-25T03:54:16.855Z,18.50
2018-05-25T03:56:46.365Z,19.50
2018-05-25T03:59:26.929Z,20.50
2018-05-25T04:02:01.680Z,21.50
2018-05-25T04:04:30.399Z,22.30
2018-05-25T04:06:59.541Z,23.30
2018-05-25T04:09:28.561Z,23.90
2018-05-25T04:11:57.470Z,24.60
2018-05-25T04:14:26.341Z,25.20
2018-05-25T04:16:54.985Z,25.70
2018-05-25T04:19:24.209Z,26.10
2018-05-25T04:21:53.117Z,26.50
2018-05-25T04:24:21.862Z,27.10
2018-05-25T04:26:50.904Z,27.40
2018-05-25T04:29:19.548Z,27.80
2018-05-25T04:31:48.447Z,28.20
2018-05-25T04:34:17.055Z,28.40
2018-05-25T04:36:46.224Z,28.60
2018-05-25T04:39:15.731Z,28.90
2018-05-25T04:41:45.208Z,29.20
2018-05-25T04:44:13.897Z,29.60
2018-05-25T04:46:43.019Z,29.80
2018-05-25T04:49:12.036Z,29.90
2018-05-25T04:51:40.702Z,30.20
2018-05-25T04:54:10.197Z,30.50
2018-05-25T04:56:38.890Z,30.80
2018-05-25T04:59:07.555Z,30.90
2018-05-25T05:01:36.507Z,31.00
2018-05-25T05:04:05.461Z,31.20
2018-05-25T05:06:34.147Z,31.20
2018-05-25T05:09:03.153Z,31.30
2018-05-25T05:11:32.172Z,31.40
2018-05-25T05:14:01.020Z,31.40
2018-05-25T05:16:30.008Z,31.30
2018-05-25T05:18:58.722Z,31.50
2018-05-25T05:21:28.264Z,31.40
2018-05-25T05:23:57.306Z,31.30
2018-05-25T05:26:26.000Z,31.50
2018-05-25T05:28:55.605Z,31.50
2018-05-25T05:31:24.285Z,31.50
2018-05-25T05:33:53.353Z,31.40
2018-05-25T05:36:22.425Z,31.20
2018-05-25T05:38:51.571Z,31.20
2018-05-25T05:41:20.503Z,30.90
2018-05-25T05:43:50.097Z,30.80
2018-05-25T05:46:19.162Z,30.60
2018-05-25T05:48:47.832Z,30.40
2018-05-25T05:51:16.523Z,30.00
2018-05-25T05:53:45.242Z,29.60
2018-05-25T05:56:13.908Z,29.30
2018-05-25T05:58:43.107Z,28.90
2018-05-25T06:01:12.093Z,28.70
2018-05-25T06:03:40.859Z,28.30
2018-05-25T06:06:09.980Z,28.10
2018-05-25T06:08:38.920Z,27.90
2018-05-25T06:11:07.661Z,27.70
2018-05-25T06:13:37.182Z,27.60
2018-05-25T06:16:06.359Z,27.40
2018-05-25T06:18:35.368Z,27.30
2018-05-25T06:21:04.084Z,27.10
2018-05-25T06:23:33.246Z,26.90
2018-05-25T06:26:02.332Z,26.80
2018-05-25T06:28:31.409Z,26.70
2018-05-25T06:31:00.115Z,26.70
2018-05-25T06:33:29.095Z,26.70
2018-05-25T06:35:57.787Z,26.80
2018-05-25T06:38:26.829Z,26.80
2018-05-25T06:40:55.838Z,26.90
2018-05-25T06:43:24.775Z,26.70
2018-05-25T06:45:53.756Z,26.60
2018-05-25T06:48:22.448Z,26.60
2018-05-25T06:50:51.141Z,26.40
2018-05-25T06:53:20.342Z,26.30
2018-05-25T06:55:49.841Z,26.20
2018-05-25T06:58:18.820Z,26.20
2018-05-25T07:00:47.536Z,26.20
2018-05-25T07:03:16.202Z,26.10
2018-05-25T07:05:44.995Z,26.10
2018-05-25T07:08:13.963Z,26.00
2018-05-25T07:10:43.598Z,26.10
2018-05-25T07:13:12.573Z,26.00
2018-05-25T07:15:41.787Z,26.10
2018-05-25T07:18:11.294Z,26.10
2018-05-25T07:20:40.278Z,26.20
2018-05-25T07:23:09.070Z,26.30
2018-05-25T07:25:38.167Z,26.50
2018-05-25T07:28:07.155Z,26.40
2018-05-25T07:30:35.870Z,26.40
2018-05-25T07:33:05.044Z,26.50
2018-05-25T07:35:34.142Z,26.60
2018-05-25T07:38:03.221Z,26.60
2018-05-25T07:40:32.334Z,26.60
2018-05-25T07:43:01.284Z,26.60
2018-05-25T07:45:29.998Z,26.40
2018-05-25T07:47:58.792Z,26.40
2018-05-25T07:50:27.897Z,26.50
2018-05-25T07:52:56.994Z,26.50
2018-05-25T07:55:26.085Z,26.50
2018-05-25T07:57:55.062Z,26.70
2018-05-25T08:00:23.902Z,26.60
2018-05-25T08:02:52.966Z,26.70
2018-05-25T08:05:21.963Z,26.80
2018-05-25T08:07:50.733Z,26.70
2018-05-25T08:10:19.756Z,26.60
2018-05-25T08:12:48.767Z,26.60
2018-05-25T08:15:17.620Z,26.70
2018-05-25T08:17:46.950Z,26.70
2018-05-25T08:20:15.811Z,26.60
2018-05-25T08:22:44.834Z,26.60
2018-05-25T08:25:14.002Z,26.50
2018-05-25T08:27:42.948Z,26.60
2018-05-25T08:30:11.699Z,26.70
2018-05-25T08:32:40.471Z,26.70
2018-05-25T08:35:09.566Z,26.80
2018-05-25T08:37:38.664Z,26.80
2018-05-25T08:40:07.760Z,26.90
2018-05-25T08:42:36.774Z,26.90
2018-05-25T08:45:05.952Z,26.80
2018-05-25T08:47:35.411Z,26.80
2018-05-25T08:50:04.483Z,26.80
2018-05-25T08:52:33.643Z,26.60
2018-05-25T08:55:02.641Z,26.60
2018-05-25T08:57:31.731Z,26.70
2018-05-25T09:00:00.425Z,26.60
2018-05-25T09:02:29.114Z,26.70
2018-05-25T09:04:57.833Z,26.80
2018-05-25T09:07:26.989Z,26.80
2018-05-25T09:09:56.022Z,26.90
2018-05-25T09:12:25.228Z,27.00
2018-05-25T09:14:54.685Z,27.00
2018-05-25T09:17:23.781Z,26.90
2018-05-25T09:19:52.686Z,26.70
2018-05-25T09:22:21.454Z,26.80
2018-05-25T09:24:50.400Z,26.50
2018-05-25T09:27:19.343Z,26.30
2018-05-25T09:29:48.437Z,26.20
2018-05-25T09:32:17.533Z,26.30
2018-05-25T09:34:46.517Z,26.40
2018-05-25T09:37:15.634Z,26.50
2018-05-25T09:39:44.822Z,26.60
2018-05-25T09:42:13.916Z,26.60
2018-05-25T09:44:43.122Z,26.60
2018-05-25T09:47:12.908Z,26.60
2018-05-25T09:49:41.575Z,26.60
2018-05-25T09:52:10.709Z,26.80
2018-05-25T09:54:39.654Z,26.80
2018-05-25T09:57:08.373Z,26.70
2018-05-25T09:59:37.064Z,26.80
2018-05-25T10:02:05.597Z,26.90
2018-05-25T10:04:34.451Z,27.10
2018-05-25T10:07:03.167Z,27.20
2018-05-25T10:09:32.738Z,27.30
2018-05-25T10:12:01.703Z,27.30
2018-05-25T10:14:31.339Z,27.30
2018-05-25T10:17:00.712Z,27.40
2018-05-25T10:19:29.436Z,27.60
2018-05-25T10:21:58.146Z,27.80
2018-05-25T10:24:27.314Z,27.70
2018-05-25T10:26:56.333Z,27.80
2018-05-25T10:29:25.077Z,28.00
2018-05-25T10:31:53.777Z,27.90
2018-05-25T10:34:22.877Z,28.20
2018-05-25T10:36:51.973Z,28.30
2018-05-25T10:39:20.873Z,28.40
2018-05-25T10:41:49.752Z,28.60
2018-05-25T10:44:18.702Z,28.60
2018-05-25T10:46:47.536Z,28.50
2018-05-25T10:49:16.628Z,28.40
2018-05-25T10:51:46.461Z,28.60
2018-05-25T10:54:15.550Z,28.50
2018-05-25T10:56:44.217Z,28.50
2018-05-25T10:59:12.934Z,28.50
2018-05-25T11:01:42.520Z,28.70
2018-05-25T11:04:11.613Z,28.80
2018-05-25T11:06:40.613Z,28.90
2018-05-25T11:09:09.803Z,28.90
2018-05-25T11:11:38.819Z,29.00
2018-05-25T11:14:08.407Z,29.10
2018-05-25T11:16:37.831Z,29.30
2018-05-25T11:19:07.005Z,29.40
2018-05-25T11:21:36.099Z,29.60
2018-05-25T11:24:05.109Z,29.60
2018-05-25T11:26:34.199Z,29.60
2018-05-25T11:29:03.216Z,29.70
2018-05-25T11:31:32.073Z,29.80
2018-05-25T11:34:01.170Z,29.70
2018-05-25T11:36:30.146Z,29.80
2018-05-25T11:38:59.773Z,30.00
2018-05-25T11:41:28.780Z,29.80
2018-05-25T11:43:58.272Z,29.40
2018-05-25T11:46:26.964Z,29.40
2018-05-25T11:48:55.743Z,29.50
2018-05-25T11:51:25.246Z,28.90
2018-05-25T11:53:54.340Z,28.90
2018-05-25T11:56:23.448Z,28.90
2018-05-25T11:58:52.532Z,29.00
2018-05-25T12:01:21.594Z,29.10
2018-05-25T12:03:50.611Z,29.00
2018-05-25T12:06:19.410Z,28.70
2018-05-25T12:08:48.508Z,28.40
2018-05-25T12:11:17.542Z,28.40
2018-05-25T12:13:47.106Z,28.40
2018-05-25T12:16:15.750Z,28.20
2018-05-25T12:18:44.891Z,28.10
2018-05-25T12:21:14.236Z,27.90
2018-05-25T12:23:42.978Z,27.70
2018-05-25T12:26:12.543Z,27.90
2018-05-25T12:35:25.417Z,28.40
2018-05-25T12:37:54.239Z,28.60
2018-05-25T12:40:22.925Z,28.80
2018-05-25T12:42:52.016Z,28.90
2018-05-25T12:45:21.086Z,28.80
2018-05-25T12:47:50.128Z,28.70
2018-05-25T12:50:19.297Z,28.60
2018-05-25T12:52:48.809Z,28.40
2018-05-25T12:55:18.312Z,28.60
2018-05-25T12:57:47.408Z,28.80
2018-05-25T13:00:16.842Z,28.90
2018-05-25T13:02:45.535Z,28.60
2018-05-25T13:05:14.599Z,28.50
2018-05-25T13:07:43.318Z,28.80
2018-05-25T13:10:12.479Z,29.00
2018-05-25T13:12:41.575Z,29.30
2018-05-25T13:15:10.673Z,29.50
2018-05-25T13:17:39.336Z,29.50
2018-05-25T13:20:08.779Z,29.70
2018-05-25T13:22:37.445Z,29.60
2018-05-25T13:25:06.141Z,29.40
2018-05-25T13:27:34.808Z,29.30
2018-05-25T13:30:03.578Z,29.30
2018-05-25T13:32:32.700Z,29.20
2018-05-25T13:35:02.086Z,29.10
2018-05-25T13:37:30.779Z,29.10
2018-05-25T13:39:59.895Z,29.20
2018-05-25T13:42:28.661Z,29.30
2018-05-25T13:44:57.356Z,29.00
2018-05-25T13:47:26.657Z,29.10
2018-05-25T13:49:55.547Z,29.20
2018-05-25T13:52:24.383Z,29.30
2018-05-25T13:54:53.331Z,29.30
2018-05-25T13:57:22.839Z,29.30
2018-05-25T13:59:51.834Z,29.30
2018-05-25T14:02:21.438Z,29.20
2018-05-25T14:04:50.445Z,28.90
2018-05-25T14:07:19.424Z,28.80
2018-05-25T14:09:48.314Z,28.70
2018-05-25T14:12:17.374Z,28.70
2018-05-25T14:14:46.841Z,28.70
2018-05-25T14:17:15.581Z,28.60
2018-05-25T14:19:44.696Z,28.50
2018-05-25T14:22:13.768Z,28.40
2018-05-25T14:24:42.889Z,28.30
2018-05-25T14:27:11.982Z,28.10
2018-05-25T14:29:41.077Z,28.10
2018-05-25T14:32:10.175Z,28.20
2018-05-25T14:34:39.284Z,28.20
2018-05-25T14:37:08.368Z,28.00
2018-05-25T14:39:37.388Z,27.80
2018-05-25T14:42:06.485Z,27.70
2018-05-25T14:44:36.064Z,27.80
2018-05-25T14:47:05.179Z,28.00
2018-05-25T14:49:34.255Z,27.90
2018-05-25T14:52:03.331Z,27.90
2018-05-25T14:54:32.877Z,27.80
2018-05-25T14:57:01.541Z,27.80
2018-05-25T14:59:30.634Z,27.70
2018-05-25T15:01:59.326Z,27.60
2018-05-25T15:04:28.366Z,27.60
2018-05-25T15:06:57.432Z,27.50
2018-05-25T15:09:26.645Z,27.50
2018-05-25T15:11:55.705Z,27.50
2018-05-25T15:14:24.535Z,27.50
2018-05-25T15:16:53.486Z,27.40
2018-05-25T15:19:22.845Z,27.30
2018-05-25T15:21:51.558Z,27.40
2018-05-25T15:24:20.252Z,27.40
2018-05-25T15:26:48.969Z,27.40
2018-05-25T15:29:17.736Z,27.40
2018-05-25T15:38:30.207Z,27.20
2018-05-25T15:40:59.384Z,26.90
2018-05-25T15:43:28.044Z,26.90
2018-05-25T15:45:57.170Z,26.80
2018-05-25T15:48:26.263Z,26.70
2018-05-25T15:50:55.246Z,26.80
2018-05-25T15:53:23.944Z,26.80
2018-05-25T15:55:52.705Z,26.90
2018-05-25T15:58:21.323Z,26.90
2018-05-25T16:00:49.990Z,27.20
2018-05-25T16:03:19.110Z,27.20
2018-05-25T16:05:47.803Z,27.30
2018-05-25T16:08:16.491Z,27.50
2018-05-25T16:10:45.987Z,27.80
2018-05-25T16:13:14.684Z,27.90
2018-05-25T16:15:43.349Z,27.90
2018-05-25T16:18:12.951Z,27.90
2018-05-25T16:20:42.304Z,28.10
2018-05-25T16:23:11.047Z,28.20
2018-05-25T16:25:39.764Z,28.30
2018-05-25T16:28:08.831Z,28.30
2018-05-25T16:30:37.874Z,28.40
2018-05-25T16:33:06.705Z,28.50
2018-05-25T16:35:35.801Z,28.50
2018-05-25T16:38:05.308Z,28.60
2018-05-25T16:40:34.404Z,28.50
2018-05-25T16:43:03.088Z,28.50
2018-05-25T16:45:32.187Z,28.30
2018-05-25T16:48:01.279Z,28.20
2018-05-25T16:50:30.265Z,28.10
2018-05-25T16:52:58.980Z,28.00
2018-05-25T16:55:27.649Z,28.00
2018-05-25T16:57:56.317Z,27.90
2018-05-25T17:00:25.009Z,27.80
2018-05-25T17:02:53.703Z,27.80
2018-05-25T17:05:22.899Z,27.70
2018-05-25T17:07:51.995Z,27.50
2018-05-25T17:10:20.982Z,27.40
2018-05-25T17:12:49.603Z,27.20
2018-05-25T17:15:18.363Z,27.30
2018-05-25T17:17:47.150Z,27.20
2018-05-25T17:20:16.148Z,27.30
2018-05-25T17:22:45.090Z,27.30
2018-05-25T17:25:13.984Z,27.40
2018-05-25T17:27:42.699Z,27.40
2018-05-25T17:30:11.398Z,27.40
2018-05-25T17:32:40.501Z,27.40
2018-05-25T17:35:09.130Z,27.50
2018-05-25T17:37:38.596Z,27.50
2018-05-25T17:40:08.196Z,27.60
2018-05-25T17:42:37.289Z,27.60
2018-05-25T17:45:06.299Z,27.70
2018-05-25T17:47:35.065Z,27.60
2018-05-25T17:50:04.057Z,27.60
2018-05-25T17:52:32.644Z,27.60
2018-05-25T17:55:01.539Z,27.50
2018-05-25T17:57:30.560Z,27.50
2018-05-25T18:00:00.138Z,27.50
2018-05-25T18:02:29.144Z,27.30
2018-05-25T18:04:57.813Z,27.20
2018-05-25T18:07:26.504Z,27.00
2018-05-25T18:09:55.199Z,26.80
2018-05-25T18:12:23.865Z,26.60
2018-05-25T18:14:52.663Z,26.30
2018-05-25T18:17:22.032Z,25.90
2018-05-25T18:19:51.266Z,25.70
2018-05-25T18:22:20.159Z,25.40
2018-05-25T18:24:48.978Z,24.90
2018-05-25T18:27:17.515Z,24.70
2018-05-25T18:29:46.419Z,24.50
2018-05-25T18:32:15.102Z,24.20
2018-05-25T18:34:44.522Z,24.10
2018-05-25T18:37:13.213Z,23.90
2018-05-25T18:39:42.655Z,23.80
2018-05-25T18:42:11.374Z,23.70
2018-05-25T18:44:40.094Z,23.40
2018-05-25T18:47:09.258Z,23.40
2018-05-25T18:49:38.363Z,23.20
2018-05-25T18:52:07.049Z,23.00
2018-05-25T18:54:36.487Z,22.90
2018-05-25T18:57:05.226Z,22.70
2018-05-25T18:59:34.221Z,22.60
2018-05-25T19:02:02.963Z,22.30
2018-05-25T19:04:31.651Z,22.20
2018-05-25T19:07:00.805Z,22.00
2018-05-25T19:09:29.813Z,21.90
2018-05-25T19:11:58.480Z,21.80
2018-05-25T19:14:27.173Z,21.70
2018-05-25T19:16:55.958Z,21.60
2018-05-25T19:19:25.032Z,21.60
2018-05-25T19:21:54.150Z,21.40
2018-05-25T19:24:23.243Z,21.30
2018-05-25T19:26:51.954Z,21.20
2018-05-25T19:29:20.638Z,21.10
2018-05-25T19:31:49.302Z,21.00
2018-05-25T19:34:17.987Z,20.90
2018-05-25T19:36:47.083Z,20.70
2018-05-25T19:39:16.174Z,20.50
2018-05-25T19:41:45.286Z,20.50
2018-05-25T19:44:14.284Z,20.40
2018-05-25T19:46:42.999Z,20.30
2018-05-25T19:49:12.068Z,20.30
2018-05-25T19:51:47.953Z,20.20
2018-05-25T19:54:16.895Z,20.10
2018-05-25T19:56:45.994Z,20.00
2018-05-25T19:59:14.934Z,19.90
2018-05-25T20:01:44.595Z,19.80
2018-05-25T20:04:13.690Z,19.70
2018-05-25T20:06:42.637Z,19.50
2018-05-25T20:09:11.881Z,19.50
2018-05-25T20:11:40.977Z,19.40
2018-05-25T20:14:10.077Z,19.30
2018-05-25T20:16:39.032Z,19.30
2018-05-25T20:19:07.773Z,19.30
2018-05-25T20:21:36.944Z,19.20
2018-05-25T20:24:06.254Z,19.10
2018-05-25T20:26:35.050Z,19.10
2018-05-25T20:29:04.389Z,19.00
2018-05-25T20:31:33.262Z,18.90
2018-05-25T20:34:02.430Z,18.80
2018-05-25T20:36:31.043Z,18.80
2018-05-25T20:38:59.784Z,18.70
2018-05-25T20:48:12.257Z,18.60
2018-05-25T20:50:42.249Z,18.10
2018-05-25T20:53:10.894Z,18.10
2018-05-25T20:55:40.054Z,18.00
2018-05-25T20:58:09.048Z,18.00
2018-05-25T21:00:37.742Z,17.90
2018-05-25T21:03:07.233Z,17.80
2018-05-25T21:05:35.930Z,17.80
2018-05-25T21:08:04.593Z,17.80
2018-05-25T21:10:33.598Z,17.70
2018-05-25T21:13:02.497Z,17.70
2018-05-25T21:15:31.843Z,17.60
2018-05-25T21:18:00.683Z,17.60
2018-05-25T21:20:29.279Z,17.50
2018-05-25T21:22:58.703Z,17.30
2018-05-25T21:25:27.364Z,17.30
2018-05-25T21:27:56.246Z,17.30
2018-05-25T21:30:24.872Z,17.20
2018-05-25T21:32:53.616Z,17.20
2018-05-25T21:35:22.713Z,17.10
2018-05-25T21:37:51.808Z,17.00
2018-05-25T21:40:20.905Z,16.90
2018-05-25T21:42:50.000Z,16.90
2018-05-25T21:45:18.685Z,16.80
2018-05-25T21:47:47.780Z,16.70
2018-05-25T21:50:16.873Z,16.70
2018-05-25T21:52:45.949Z,16.70
2018-05-25T21:55:14.659Z,16.60
2018-05-25T21:57:43.752Z,16.70
2018-05-25T22:00:12.731Z,16.60
2018-05-25T22:02:41.446Z,16.60
2018-05-25T22:05:10.614Z,16.60
2018-05-25T22:07:39.724Z,16.50
2018-05-25T22:10:08.821Z,16.40
2018-05-25T22:12:37.919Z,16.40
2018-05-25T22:15:07.011Z,16.30
2018-05-25T22:17:36.107Z,16.30
2018-05-25T22:20:04.999Z,16.30
2018-05-25T22:22:33.890Z,16.20
2018-05-25T22:25:02.901Z,16.10
2018-05-25T22:27:32.394Z,16.00
2018-05-25T22:30:01.432Z,16.00
2018-05-25T22:32:30.078Z,16.00
2018-05-25T22:34:58.967Z,16.00
2018-05-25T22:37:27.911Z,15.90
2018-05-25T22:39:57.309Z,15.90
2018-05-25T22:42:38.492Z,15.80
2018-05-25T22:45:25.245Z,15.70
2018-05-25T22:48:11.949Z,15.70
2018-05-25T22:50:59.293Z,15.50
2018-05-25T22:53:39.225Z,15.50
2018-05-25T22:56:08.223Z,15.30
2018-05-25T22:58:36.951Z,15.10
2018-05-25T23:01:08.966Z,15.00
2018-05-25T23:03:38.405Z,15.00
2018-05-25T23:06:07.546Z,14.90
2018-05-25T23:08:36.782Z,14.80
2018-05-25T23:11:05.676Z,14.70
2018-05-25T23:13:34.243Z,14.60
2018-05-25T23:16:03.010Z,14.60
2018-05-25T23:18:31.753Z,14.50
2018-05-25T23:21:00.912Z,14.40
2018-05-25T23:23:30.009Z,14.40
2018-05-25T23:25:58.679Z,14.30
2018-05-25T23:28:27.698Z,14.30
2018-05-25T23:30:56.387Z,14.30
2018-05-25T23:33:25.083Z,14.30
2018-05-25T23:35:54.097Z,14.20
2018-05-25T23:38:22.952Z,14.20
2018-05-25T23:40:51.957Z,14.20
2018-05-25T23:43:20.654Z,14.10
2018-05-25T23:45:49.715Z,14.10
2018-05-25T23:48:18.383Z,14.10
2018-05-25T23:50:47.082Z,14.10
2018-05-25T23:53:15.794Z,14.00
2018-05-25T23:55:44.513Z,14.00
2018-05-25T23:58:13.659Z,13.90
